sensor_id;sensor_type;location;lat;lon;timestamp;P1;durP1;ratioP1;P2;durP2;ratioP2
18754;SDS011;35061;47.664;9.166;2024-01-25T00:01:37;0.50;;;0.50;;
18754;SDS011;35061;47.664;9.166;2024-01-25T00:04:05;1.25;;;0.60;;
18754;SDS011;35061;47.664;9.166;2024-01-25T00:06:34;1.00;;;0.70;;
18754;SDS011;35061;47.664;9.166;2024-01-25T00:09:02;0.70;;;0.57;;
18754;SDS011;35061;47.664;9.166;2024-01-25T00:11:33;0.60;;;0.60;;
18754;SDS011;35061;47.664;9.166;2024-01-25T00:14:02;1.98;;;0.57;;
18754;SDS011;35061;47.664;9.166;2024-01-25T00:16:30;1.45;;;0.50;;
18754;SDS011;35061;47.664;9.166;2024-01-25T00:18:58;1.50;;;0.60;;
18754;SDS011;35061;47.664;9.166;2024-01-25T00:21:27;1.10;;;0.50;;
18754;SDS011;35061;47.664;9.166;2024-01-25T00:23:55;1.37;;;1.00;;
18754;SDS011;35061;47.664;9.166;2024-01-25T00:26:23;3.20;;;0.73;;
18754;SDS011;35061;47.664;9.166;2024-01-25T00:28:51;1.08;;;0.50;;
18754;SDS011;35061;47.664;9.166;2024-01-25T00:31:19;1.15;;;0.70;;
18754;SDS011;35061;47.664;9.166;2024-01-25T00:33:47;0.80;;;0.60;;
18754;SDS011;35061;47.664;9.166;2024-01-25T00:36:15;1.05;;;0.73;;
18754;SDS011;35061;47.664;9.166;2024-01-25T00:38:44;0.65;;;0.50;;
18754;SDS011;35061;47.664;9.166;2024-01-25T00:41:12;1.67;;;0.77;;
18754;SDS011;35061;47.664;9.166;2024-01-25T00:43:45;1.80;;;0.95;;
18754;SDS011;35061;47.664;9.166;2024-01-25T00:46:14;2.08;;;0.60;;
18754;SDS011;35061;47.664;9.166;2024-01-25T00:48:42;0.57;;;0.50;;
18754;SDS011;35061;47.664;9.166;2024-01-25T00:51:14;1.23;;;0.60;;
18754;SDS011;35061;47.664;9.166;2024-01-25T00:53:46;1.50;;;0.60;;
18754;SDS011;35061;47.664;9.166;2024-01-25T00:56:14;2.15;;;0.82;;
18754;SDS011;35061;47.664;9.166;2024-01-25T00:58:42;2.15;;;0.80;;
18754;SDS011;35061;47.664;9.166;2024-01-25T01:01:10;2.85;;;0.95;;
18754;SDS011;35061;47.664;9.166;2024-01-25T01:03:39;1.60;;;0.60;;
18754;SDS011;35061;47.664;9.166;2024-01-25T01:06:07;1.35;;;1.05;;
18754;SDS011;35061;47.664;9.166;2024-01-25T01:08:36;1.50;;;0.75;;
18754;SDS011;35061;47.664;9.166;2024-01-25T01:11:04;2.20;;;0.90;;
18754;SDS011;35061;47.664;9.166;2024-01-25T01:13:32;2.80;;;1.00;;
18754;SDS011;35061;47.664;9.166;2024-01-25T01:16:00;2.85;;;0.75;;
18754;SDS011;35061;47.664;9.166;2024-01-25T01:18:28;1.40;;;0.65;;
18754;SDS011;35061;47.664;9.166;2024-01-25T01:20:57;2.62;;;1.48;;
18754;SDS011;35061;47.664;9.166;2024-01-25T01:23:25;0.70;;;0.60;;
18754;SDS011;35061;47.664;9.166;2024-01-25T01:25:53;1.40;;;0.68;;
18754;SDS011;35061;47.664;9.166;2024-01-25T01:28:21;0.85;;;0.80;;
18754;SDS011;35061;47.664;9.166;2024-01-25T01:30:49;2.30;;;1.33;;
18754;SDS011;35061;47.664;9.166;2024-01-25T01:33:17;1.95;;;1.05;;
18754;SDS011;35061;47.664;9.166;2024-01-25T01:35:45;3.85;;;1.08;;
18754;SDS011;35061;47.664;9.166;2024-01-25T01:38:13;2.00;;;1.00;;
18754;SDS011;35061;47.664;9.166;2024-01-25T01:40:41;1.92;;;0.80;;
18754;SDS011;35061;47.664;9.166;2024-01-25T01:43:18;3.33;;;1.08;;
18754;SDS011;35061;47.664;9.166;2024-01-25T01:45:47;4.75;;;0.90;;
18754;SDS011;35061;47.664;9.166;2024-01-25T01:48:18;1.70;;;0.73;;
18754;SDS011;35061;47.664;9.166;2024-01-25T01:50:46;2.10;;;0.70;;
18754;SDS011;35061;47.664;9.166;2024-01-25T01:53:15;1.45;;;0.65;;
18754;SDS011;35061;47.664;9.166;2024-01-25T01:55:44;1.98;;;1.00;;
18754;SDS011;35061;47.664;9.166;2024-01-25T01:58:13;6.82;;;1.30;;
18754;SDS011;35061;47.664;9.166;2024-01-25T02:00:42;1.75;;;0.88;;
18754;SDS011;35061;47.664;9.166;2024-01-25T02:03:10;2.25;;;0.80;;
18754;SDS011;35061;47.664;9.166;2024-01-25T02:05:38;2.83;;;0.90;;
18754;SDS011;35061;47.664;9.166;2024-01-25T02:08:06;2.67;;;0.90;;
18754;SDS011;35061;47.664;9.166;2024-01-25T02:10:35;1.85;;;0.65;;
18754;SDS011;35061;47.664;9.166;2024-01-25T02:13:03;2.22;;;0.95;;
18754;SDS011;35061;47.664;9.166;2024-01-25T02:15:31;0.73;;;0.70;;
18754;SDS011;35061;47.664;9.166;2024-01-25T02:17:59;3.55;;;1.35;;
18754;SDS011;35061;47.664;9.166;2024-01-25T02:20:27;2.35;;;1.10;;
18754;SDS011;35061;47.664;9.166;2024-01-25T02:22:55;0.70;;;0.70;;
18754;SDS011;35061;47.664;9.166;2024-01-25T02:25:23;1.52;;;1.35;;
18754;SDS011;35061;47.664;9.166;2024-01-25T02:27:51;0.80;;;0.80;;
18754;SDS011;35061;47.664;9.166;2024-01-25T02:30:20;1.60;;;0.80;;
18754;SDS011;35061;47.664;9.166;2024-01-25T02:32:48;1.27;;;0.88;;
18754;SDS011;35061;47.664;9.166;2024-01-25T02:35:16;1.75;;;0.68;;
18754;SDS011;35061;47.664;9.166;2024-01-25T02:37:45;1.25;;;0.80;;
18754;SDS011;35061;47.664;9.166;2024-01-25T02:40:13;2.78;;;0.80;;
18754;SDS011;35061;47.664;9.166;2024-01-25T02:42:41;0.70;;;0.70;;
18754;SDS011;35061;47.664;9.166;2024-01-25T02:45:09;1.55;;;0.88;;
18754;SDS011;35061;47.664;9.166;2024-01-25T02:47:37;1.85;;;1.08;;
18754;SDS011;35061;47.664;9.166;2024-01-25T02:50:06;2.17;;;0.80;;
18754;SDS011;35061;47.664;9.166;2024-01-25T02:52:34;2.37;;;1.08;;
18754;SDS011;35061;47.664;9.166;2024-01-25T02:55:02;0.62;;;0.62;;
18754;SDS011;35061;47.664;9.166;2024-01-25T02:57:31;2.37;;;0.88;;
18754;SDS011;35061;47.664;9.166;2024-01-25T02:59:59;0.70;;;0.70;;
18754;SDS011;35061;47.664;9.166;2024-01-25T03:02:28;3.35;;;0.90;;
18754;SDS011;35061;47.664;9.166;2024-01-25T03:04:56;1.42;;;0.70;;
18754;SDS011;35061;47.664;9.166;2024-01-25T03:07:24;1.50;;;0.80;;
18754;SDS011;35061;47.664;9.166;2024-01-25T03:09:52;2.85;;;0.70;;
18754;SDS011;35061;47.664;9.166;2024-01-25T03:12:20;3.53;;;1.05;;
18754;SDS011;35061;47.664;9.166;2024-01-25T03:14:48;1.40;;;0.68;;
18754;SDS011;35061;47.664;9.166;2024-01-25T03:17:16;2.55;;;0.68;;
18754;SDS011;35061;47.664;9.166;2024-01-25T03:19:44;1.12;;;0.60;;
18754;SDS011;35061;47.664;9.166;2024-01-25T03:22:13;1.20;;;0.70;;
18754;SDS011;35061;47.664;9.166;2024-01-25T03:24:41;2.22;;;1.00;;
18754;SDS011;35061;47.664;9.166;2024-01-25T03:27:09;0.73;;;0.60;;
18754;SDS011;35061;47.664;9.166;2024-01-25T03:29:41;1.15;;;0.80;;
18754;SDS011;35061;47.664;9.166;2024-01-25T03:32:10;1.45;;;0.60;;
18754;SDS011;35061;47.664;9.166;2024-01-25T03:34:38;1.50;;;0.90;;
18754;SDS011;35061;47.664;9.166;2024-01-25T03:37:07;1.30;;;0.55;;
18754;SDS011;35061;47.664;9.166;2024-01-25T03:39:35;2.28;;;1.40;;
18754;SDS011;35061;47.664;9.166;2024-01-25T03:42:03;1.80;;;1.23;;
18754;SDS011;35061;47.664;9.166;2024-01-25T03:44:31;2.37;;;1.10;;
18754;SDS011;35061;47.664;9.166;2024-01-25T03:46:59;1.83;;;0.98;;
18754;SDS011;35061;47.664;9.166;2024-01-25T03:49:27;1.15;;;0.70;;
18754;SDS011;35061;47.664;9.166;2024-01-25T03:51:55;2.45;;;0.73;;
18754;SDS011;35061;47.664;9.166;2024-01-25T03:54:23;0.88;;;0.77;;
18754;SDS011;35061;47.664;9.166;2024-01-25T03:56:51;1.05;;;0.73;;
18754;SDS011;35061;47.664;9.166;2024-01-25T03:59:20;3.28;;;1.02;;
18754;SDS011;35061;47.664;9.166;2024-01-25T04:01:47;2.42;;;1.20;;
18754;SDS011;35061;47.664;9.166;2024-01-25T04:04:16;1.83;;;1.00;;
18754;SDS011;35061;47.664;9.166;2024-01-25T04:06:44;1.27;;;0.80;;
18754;SDS011;35061;47.664;9.166;2024-01-25T04:09:16;1.12;;;1.02;;
18754;SDS011;35061;47.664;9.166;2024-01-25T04:11:44;2.55;;;0.80;;
18754;SDS011;35061;47.664;9.166;2024-01-25T04:14:12;0.50;;;0.50;;
18754;SDS011;35061;47.664;9.166;2024-01-25T04:16:40;1.10;;;0.55;;
18754;SDS011;35061;47.664;9.166;2024-01-25T04:19:08;1.95;;;0.68;;
18754;SDS011;35061;47.664;9.166;2024-01-25T04:21:40;0.73;;;0.57;;
18754;SDS011;35061;47.664;9.166;2024-01-25T04:24:08;1.02;;;0.60;;
18754;SDS011;35061;47.664;9.166;2024-01-25T04:26:36;1.95;;;0.73;;
18754;SDS011;35061;47.664;9.166;2024-01-25T04:29:04;0.82;;;0.70;;
18754;SDS011;35061;47.664;9.166;2024-01-25T04:31:33;1.70;;;0.93;;
18754;SDS011;35061;47.664;9.166;2024-01-25T04:34:01;1.05;;;0.80;;
18754;SDS011;35061;47.664;9.166;2024-01-25T04:36:30;1.33;;;0.77;;
18754;SDS011;35061;47.664;9.166;2024-01-25T04:38:57;2.17;;;0.95;;
18754;SDS011;35061;47.664;9.166;2024-01-25T04:41:26;0.98;;;0.88;;
18754;SDS011;35061;47.664;9.166;2024-01-25T04:43:54;1.12;;;0.90;;
18754;SDS011;35061;47.664;9.166;2024-01-25T04:46:21;1.65;;;1.20;;
18754;SDS011;35061;47.664;9.166;2024-01-25T04:48:50;1.00;;;0.90;;
18754;SDS011;35061;47.664;9.166;2024-01-25T04:51:19;1.35;;;1.20;;
18754;SDS011;35061;47.664;9.166;2024-01-25T04:53:48;1.35;;;1.12;;
18754;SDS011;35061;47.664;9.166;2024-01-25T04:56:16;1.45;;;1.10;;
18754;SDS011;35061;47.664;9.166;2024-01-25T04:58:45;2.33;;;1.50;;
18754;SDS011;35061;47.664;9.166;2024-01-25T05:01:13;2.28;;;1.27;;
18754;SDS011;35061;47.664;9.166;2024-01-25T05:03:41;1.70;;;1.40;;
18754;SDS011;35061;47.664;9.166;2024-01-25T05:06:09;2.60;;;1.10;;
18754;SDS011;35061;47.664;9.166;2024-01-25T05:08:38;2.62;;;1.30;;
18754;SDS011;35061;47.664;9.166;2024-01-25T05:11:06;2.33;;;1.40;;
18754;SDS011;35061;47.664;9.166;2024-01-25T05:13:34;2.35;;;1.30;;
18754;SDS011;35061;47.664;9.166;2024-01-25T05:16:02;1.87;;;1.20;;
18754;SDS011;35061;47.664;9.166;2024-01-25T05:18:30;1.30;;;1.20;;
18754;SDS011;35061;47.664;9.166;2024-01-25T05:20:58;2.28;;;1.20;;
18754;SDS011;35061;47.664;9.166;2024-01-25T05:23:26;1.90;;;1.30;;
18754;SDS011;35061;47.664;9.166;2024-01-25T05:25:54;1.98;;;1.40;;
18754;SDS011;35061;47.664;9.166;2024-01-25T05:28:22;1.55;;;1.45;;
18754;SDS011;35061;47.664;9.166;2024-01-25T05:30:51;3.08;;;1.40;;
18754;SDS011;35061;47.664;9.166;2024-01-25T05:33:19;2.20;;;1.40;;
18754;SDS011;35061;47.664;9.166;2024-01-25T05:35:48;3.95;;;1.90;;
18754;SDS011;35061;47.664;9.166;2024-01-25T05:38:16;2.55;;;2.00;;
18754;SDS011;35061;47.664;9.166;2024-01-25T05:40:44;3.90;;;2.40;;
18754;SDS011;35061;47.664;9.166;2024-01-25T05:43:12;3.03;;;2.72;;
18754;SDS011;35061;47.664;9.166;2024-01-25T05:45:40;4.07;;;2.65;;
18754;SDS011;35061;47.664;9.166;2024-01-25T05:48:08;3.60;;;2.78;;
18754;SDS011;35061;47.664;9.166;2024-01-25T05:50:36;3.80;;;2.58;;
18754;SDS011;35061;47.664;9.166;2024-01-25T05:53:04;3.42;;;2.45;;
18754;SDS011;35061;47.664;9.166;2024-01-25T05:55:33;2.75;;;2.53;;
18754;SDS011;35061;47.664;9.166;2024-01-25T05:58:01;2.62;;;2.42;;
18754;SDS011;35061;47.664;9.166;2024-01-25T06:00:30;3.70;;;1.95;;
18754;SDS011;35061;47.664;9.166;2024-01-25T06:02:58;2.53;;;2.33;;
18754;SDS011;35061;47.664;9.166;2024-01-25T06:05:26;2.40;;;2.20;;
18754;SDS011;35061;47.664;9.166;2024-01-25T06:07:54;2.35;;;2.10;;
18754;SDS011;35061;47.664;9.166;2024-01-25T06:10:23;4.43;;;2.33;;
18754;SDS011;35061;47.664;9.166;2024-01-25T06:12:52;3.30;;;1.80;;
18754;SDS011;35061;47.664;9.166;2024-01-25T06:15:20;2.97;;;2.67;;
18754;SDS011;35061;47.664;9.166;2024-01-25T06:17:48;3.42;;;2.10;;
18754;SDS011;35061;47.664;9.166;2024-01-25T06:20:16;3.87;;;3.03;;
18754;SDS011;35061;47.664;9.166;2024-01-25T06:22:45;6.43;;;4.37;;
18754;SDS011;35061;47.664;9.166;2024-01-25T06:25:13;5.37;;;3.40;;
18754;SDS011;35061;47.664;9.166;2024-01-25T06:27:41;3.47;;;2.72;;
18754;SDS011;35061;47.664;9.166;2024-01-25T06:30:09;4.80;;;3.08;;
18754;SDS011;35061;47.664;9.166;2024-01-25T06:32:38;4.22;;;2.90;;
18754;SDS011;35061;47.664;9.166;2024-01-25T06:35:07;4.03;;;3.33;;
18754;SDS011;35061;47.664;9.166;2024-01-25T06:37:35;6.03;;;3.40;;
18754;SDS011;35061;47.664;9.166;2024-01-25T06:40:03;5.00;;;3.60;;
18754;SDS011;35061;47.664;9.166;2024-01-25T06:42:32;8.70;;;4.40;;
18754;SDS011;35061;47.664;9.166;2024-01-25T06:45:00;4.28;;;3.87;;
18754;SDS011;35061;47.664;9.166;2024-01-25T06:47:28;5.10;;;4.37;;
18754;SDS011;35061;47.664;9.166;2024-01-25T06:49:57;5.03;;;3.75;;
18754;SDS011;35061;47.664;9.166;2024-01-25T06:52:26;5.10;;;4.28;;
18754;SDS011;35061;47.664;9.166;2024-01-25T06:54:55;6.32;;;4.32;;
18754;SDS011;35061;47.664;9.166;2024-01-25T06:57:24;5.00;;;4.50;;
18754;SDS011;35061;47.664;9.166;2024-01-25T06:59:52;7.85;;;4.72;;
18754;SDS011;35061;47.664;9.166;2024-01-25T07:02:20;4.50;;;3.67;;
18754;SDS011;35061;47.664;9.166;2024-01-25T07:04:48;7.53;;;4.62;;
18754;SDS011;35061;47.664;9.166;2024-01-25T07:07:20;6.93;;;4.28;;
18754;SDS011;35061;47.664;9.166;2024-01-25T07:09:49;5.32;;;4.25;;
18754;SDS011;35061;47.664;9.166;2024-01-25T07:12:17;5.50;;;4.03;;
18754;SDS011;35061;47.664;9.166;2024-01-25T07:14:45;6.12;;;4.05;;
18754;SDS011;35061;47.664;9.166;2024-01-25T07:17:13;5.45;;;3.75;;
18754;SDS011;35061;47.664;9.166;2024-01-25T07:19:41;5.53;;;3.97;;
18754;SDS011;35061;47.664;9.166;2024-01-25T07:22:09;5.50;;;3.90;;
18754;SDS011;35061;47.664;9.166;2024-01-25T07:24:40;6.03;;;3.65;;
18754;SDS011;35061;47.664;9.166;2024-01-25T07:27:08;3.75;;;3.00;;
18754;SDS011;35061;47.664;9.166;2024-01-25T07:29:37;3.55;;;2.97;;
18754;SDS011;35061;47.664;9.166;2024-01-25T07:32:05;4.50;;;3.15;;
18754;SDS011;35061;47.664;9.166;2024-01-25T07:34:33;6.68;;;3.67;;
18754;SDS011;35061;47.664;9.166;2024-01-25T07:37:02;3.90;;;3.10;;
18754;SDS011;35061;47.664;9.166;2024-01-25T07:39:31;4.53;;;4.05;;
18754;SDS011;35061;47.664;9.166;2024-01-25T07:41:59;6.28;;;4.10;;
18754;SDS011;35061;47.664;9.166;2024-01-25T07:44:27;5.28;;;3.67;;
18754;SDS011;35061;47.664;9.166;2024-01-25T07:46:55;6.22;;;3.90;;
18754;SDS011;35061;47.664;9.166;2024-01-25T07:49:23;6.47;;;4.25;;
18754;SDS011;35061;47.664;9.166;2024-01-25T07:51:51;5.07;;;3.47;;
18754;SDS011;35061;47.664;9.166;2024-01-25T07:54:19;6.53;;;3.45;;
18754;SDS011;35061;47.664;9.166;2024-01-25T07:56:47;8.57;;;4.68;;
18754;SDS011;35061;47.664;9.166;2024-01-25T07:59:16;6.60;;;4.05;;
18754;SDS011;35061;47.664;9.166;2024-01-25T08:01:44;5.62;;;3.40;;
18754;SDS011;35061;47.664;9.166;2024-01-25T08:04:12;4.93;;;3.45;;
18754;SDS011;35061;47.664;9.166;2024-01-25T08:06:41;5.55;;;2.92;;
18754;SDS011;35061;47.664;9.166;2024-01-25T08:09:09;3.58;;;1.90;;
18754;SDS011;35061;47.664;9.166;2024-01-25T08:11:38;2.50;;;2.10;;
18754;SDS011;35061;47.664;9.166;2024-01-25T08:14:06;3.12;;;2.15;;
18754;SDS011;35061;47.664;9.166;2024-01-25T08:16:34;6.50;;;2.33;;
18754;SDS011;35061;47.664;9.166;2024-01-25T08:19:02;3.33;;;1.90;;
18754;SDS011;35061;47.664;9.166;2024-01-25T08:21:32;3.28;;;2.28;;
18754;SDS011;35061;47.664;9.166;2024-01-25T08:24:00;2.47;;;2.00;;
18754;SDS011;35061;47.664;9.166;2024-01-25T08:26:28;3.72;;;1.87;;
18754;SDS011;35061;47.664;9.166;2024-01-25T08:28:56;4.62;;;2.12;;
18754;SDS011;35061;47.664;9.166;2024-01-25T08:31:24;4.50;;;2.58;;
18754;SDS011;35061;47.664;9.166;2024-01-25T08:33:52;3.55;;;1.92;;
18754;SDS011;35061;47.664;9.166;2024-01-25T08:36:21;3.97;;;2.50;;
18754;SDS011;35061;47.664;9.166;2024-01-25T08:38:50;2.67;;;2.40;;
18754;SDS011;35061;47.664;9.166;2024-01-25T08:41:18;3.50;;;2.72;;
18754;SDS011;35061;47.664;9.166;2024-01-25T08:43:46;3.87;;;2.40;;
18754;SDS011;35061;47.664;9.166;2024-01-25T08:46:14;3.58;;;1.98;;
18754;SDS011;35061;47.664;9.166;2024-01-25T08:48:45;2.62;;;1.83;;
18754;SDS011;35061;47.664;9.166;2024-01-25T08:51:13;3.00;;;2.70;;
18754;SDS011;35061;47.664;9.166;2024-01-25T08:53:42;3.30;;;2.47;;
18754;SDS011;35061;47.664;9.166;2024-01-25T08:56:09;3.28;;;2.22;;
18754;SDS011;35061;47.664;9.166;2024-01-25T08:58:37;3.55;;;2.62;;
18754;SDS011;35061;47.664;9.166;2024-01-25T09:01:05;4.97;;;2.58;;
18754;SDS011;35061;47.664;9.166;2024-01-25T09:03:34;4.95;;;2.62;;
18754;SDS011;35061;47.664;9.166;2024-01-25T09:06:02;3.72;;;2.58;;
18754;SDS011;35061;47.664;9.166;2024-01-25T09:08:33;5.32;;;2.47;;
18754;SDS011;35061;47.664;9.166;2024-01-25T09:11:01;3.97;;;2.80;;
18754;SDS011;35061;47.664;9.166;2024-01-25T09:13:29;3.35;;;2.70;;
18754;SDS011;35061;47.664;9.166;2024-01-25T09:15:57;2.62;;;1.50;;
18754;SDS011;35061;47.664;9.166;2024-01-25T09:18:26;3.35;;;1.60;;
18754;SDS011;35061;47.664;9.166;2024-01-25T09:20:54;1.98;;;1.40;;
18754;SDS011;35061;47.664;9.166;2024-01-25T09:23:22;2.55;;;1.62;;
18754;SDS011;35061;47.664;9.166;2024-01-25T09:25:50;3.53;;;1.62;;
18754;SDS011;35061;47.664;9.166;2024-01-25T09:28:19;1.67;;;1.35;;
18754;SDS011;35061;47.664;9.166;2024-01-25T09:30:47;7.70;;;1.75;;
18754;SDS011;35061;47.664;9.166;2024-01-25T09:33:18;3.33;;;1.83;;
18754;SDS011;35061;47.664;9.166;2024-01-25T09:35:47;2.83;;;1.52;;
18754;SDS011;35061;47.664;9.166;2024-01-25T09:38:16;1.98;;;1.15;;
18754;SDS011;35061;47.664;9.166;2024-01-25T09:40:44;2.72;;;1.40;;
18754;SDS011;35061;47.664;9.166;2024-01-25T09:43:13;1.87;;;1.50;;
18754;SDS011;35061;47.664;9.166;2024-01-25T09:45:42;2.37;;;1.42;;
18754;SDS011;35061;47.664;9.166;2024-01-25T09:48:12;2.72;;;1.65;;
18754;SDS011;35061;47.664;9.166;2024-01-25T09:50:40;4.28;;;1.87;;
18754;SDS011;35061;47.664;9.166;2024-01-25T09:53:11;4.53;;;2.17;;
18754;SDS011;35061;47.664;9.166;2024-01-25T09:55:46;4.87;;;2.78;;
18754;SDS011;35061;47.664;9.166;2024-01-25T09:58:25;3.03;;;2.35;;
18754;SDS011;35061;47.664;9.166;2024-01-25T10:01:03;3.22;;;2.40;;
18754;SDS011;35061;47.664;9.166;2024-01-25T10:03:31;4.20;;;2.45;;
18754;SDS011;35061;47.664;9.166;2024-01-25T10:05:59;2.97;;;2.42;;
18754;SDS011;35061;47.664;9.166;2024-01-25T10:08:29;4.60;;;2.85;;
18754;SDS011;35061;47.664;9.166;2024-01-25T10:10:57;4.60;;;3.00;;
18754;SDS011;35061;47.664;9.166;2024-01-25T10:13:26;5.18;;;3.55;;
18754;SDS011;35061;47.664;9.166;2024-01-25T10:15:57;3.15;;;2.78;;
18754;SDS011;35061;47.664;9.166;2024-01-25T10:18:26;3.92;;;2.67;;
18754;SDS011;35061;47.664;9.166;2024-01-25T10:20:56;4.68;;;3.05;;
18754;SDS011;35061;47.664;9.166;2024-01-25T10:23:24;3.70;;;2.58;;
18754;SDS011;35061;47.664;9.166;2024-01-25T10:25:55;4.68;;;2.58;;
18754;SDS011;35061;47.664;9.166;2024-01-25T10:28:24;4.12;;;2.62;;
18754;SDS011;35061;47.664;9.166;2024-01-25T10:30:57;5.07;;;2.80;;
18754;SDS011;35061;47.664;9.166;2024-01-25T10:33:27;3.00;;;2.62;;
18754;SDS011;35061;47.664;9.166;2024-01-25T10:35:56;4.18;;;2.70;;
18754;SDS011;35061;47.664;9.166;2024-01-25T10:38:34;4.50;;;2.67;;
18754;SDS011;35061;47.664;9.166;2024-01-25T10:41:03;5.60;;;2.78;;
18754;SDS011;35061;47.664;9.166;2024-01-25T10:43:33;3.40;;;3.10;;
18754;SDS011;35061;47.664;9.166;2024-01-25T10:46:02;2.92;;;2.15;;
18754;SDS011;35061;47.664;9.166;2024-01-25T10:48:31;3.12;;;2.58;;
18754;SDS011;35061;47.664;9.166;2024-01-25T10:51:01;2.45;;;2.25;;
18754;SDS011;35061;47.664;9.166;2024-01-25T10:53:34;2.97;;;2.00;;
18754;SDS011;35061;47.664;9.166;2024-01-25T10:56:02;4.53;;;2.47;;
18754;SDS011;35061;47.664;9.166;2024-01-25T10:58:31;4.70;;;2.58;;
18754;SDS011;35061;47.664;9.166;2024-01-25T11:01:09;3.37;;;2.42;;
18754;SDS011;35061;47.664;9.166;2024-01-25T11:03:42;2.90;;;1.85;;
18754;SDS011;35061;47.664;9.166;2024-01-25T11:06:14;2.92;;;1.95;;
18754;SDS011;35061;47.664;9.166;2024-01-25T11:08:43;3.20;;;1.87;;
18754;SDS011;35061;47.664;9.166;2024-01-25T11:11:11;1.92;;;0.80;;
18754;SDS011;35061;47.664;9.166;2024-01-25T11:13:42;3.33;;;1.20;;
18754;SDS011;35061;47.664;9.166;2024-01-25T11:16:14;0.70;;;0.70;;
18754;SDS011;35061;47.664;9.166;2024-01-25T11:18:48;2.42;;;1.10;;
18754;SDS011;35061;47.664;9.166;2024-01-25T11:24:22;1.80;;;0.62;;
18754;SDS011;35061;47.664;9.166;2024-01-25T11:26:54;1.92;;;0.90;;
18754;SDS011;35061;47.664;9.166;2024-01-25T11:29:22;0.90;;;0.70;;
18754;SDS011;35061;47.664;9.166;2024-01-25T11:31:51;0.80;;;0.80;;
18754;SDS011;35061;47.664;9.166;2024-01-25T11:34:20;1.08;;;0.70;;
18754;SDS011;35061;47.664;9.166;2024-01-25T11:36:50;1.25;;;1.08;;
18754;SDS011;35061;47.664;9.166;2024-01-25T11:39:18;2.33;;;0.70;;
18754;SDS011;35061;47.664;9.166;2024-01-25T11:41:47;1.62;;;1.02;;
18754;SDS011;35061;47.664;9.166;2024-01-25T11:44:16;1.15;;;0.80;;
18754;SDS011;35061;47.664;9.166;2024-01-25T11:46:44;2.33;;;0.98;;
18754;SDS011;35061;47.664;9.166;2024-01-25T11:49:12;1.27;;;1.00;;
18754;SDS011;35061;47.664;9.166;2024-01-25T11:51:40;5.47;;;0.90;;
18754;SDS011;35061;47.664;9.166;2024-01-25T11:54:10;1.23;;;0.82;;
18754;SDS011;35061;47.664;9.166;2024-01-25T11:56:39;1.73;;;0.93;;
18754;SDS011;35061;47.664;9.166;2024-01-25T11:59:08;1.48;;;1.10;;
18754;SDS011;35061;47.664;9.166;2024-01-25T12:01:38;1.55;;;0.90;;
18754;SDS011;35061;47.664;9.166;2024-01-25T12:04:08;1.33;;;0.98;;
18754;SDS011;35061;47.664;9.166;2024-01-25T12:06:37;2.65;;;0.80;;
18754;SDS011;35061;47.664;9.166;2024-01-25T12:09:06;1.15;;;0.95;;
18754;SDS011;35061;47.664;9.166;2024-01-25T12:11:36;1.15;;;0.80;;
18754;SDS011;35061;47.664;9.166;2024-01-25T12:14:05;1.87;;;0.98;;
18754;SDS011;35061;47.664;9.166;2024-01-25T12:16:34;3.45;;;1.35;;
18754;SDS011;35061;47.664;9.166;2024-01-25T12:19:04;2.67;;;1.40;;
18754;SDS011;35061;47.664;9.166;2024-01-25T12:21:33;2.50;;;1.17;;
18754;SDS011;35061;47.664;9.166;2024-01-25T12:24:03;3.40;;;1.85;;
18754;SDS011;35061;47.664;9.166;2024-01-25T12:26:34;4.10;;;1.30;;
18754;SDS011;35061;47.664;9.166;2024-01-25T12:29:03;1.17;;;1.00;;
18754;SDS011;35061;47.664;9.166;2024-01-25T12:31:32;2.10;;;1.52;;
18754;SDS011;35061;47.664;9.166;2024-01-25T12:34:00;2.15;;;1.27;;
18754;SDS011;35061;47.664;9.166;2024-01-25T12:36:29;1.48;;;1.10;;
18754;SDS011;35061;47.664;9.166;2024-01-25T12:38:57;1.67;;;1.33;;
18754;SDS011;35061;47.664;9.166;2024-01-25T12:41:28;2.15;;;1.15;;
18754;SDS011;35061;47.664;9.166;2024-01-25T12:43:56;1.58;;;1.35;;
18754;SDS011;35061;47.664;9.166;2024-01-25T12:46:25;1.95;;;1.10;;
18754;SDS011;35061;47.664;9.166;2024-01-25T12:48:54;1.62;;;1.30;;
18754;SDS011;35061;47.664;9.166;2024-01-25T12:51:24;1.10;;;1.00;;
18754;SDS011;35061;47.664;9.166;2024-01-25T12:53:53;1.67;;;1.37;;
18754;SDS011;35061;47.664;9.166;2024-01-25T12:56:21;1.95;;;1.00;;
18754;SDS011;35061;47.664;9.166;2024-01-25T12:58:49;1.30;;;1.10;;
18754;SDS011;35061;47.664;9.166;2024-01-25T13:01:17;1.70;;;1.17;;
18754;SDS011;35061;47.664;9.166;2024-01-25T13:03:47;1.40;;;1.00;;
18754;SDS011;35061;47.664;9.166;2024-01-25T13:06:16;1.80;;;0.90;;
18754;SDS011;35061;47.664;9.166;2024-01-25T13:08:44;3.60;;;1.33;;
18754;SDS011;35061;47.664;9.166;2024-01-25T13:11:12;1.70;;;1.10;;
18754;SDS011;35061;47.664;9.166;2024-01-25T13:13:40;2.17;;;1.20;;
18754;SDS011;35061;47.664;9.166;2024-01-25T13:16:08;1.67;;;0.90;;
18754;SDS011;35061;47.664;9.166;2024-01-25T13:18:36;2.15;;;1.20;;
18754;SDS011;35061;47.664;9.166;2024-01-25T13:21:05;2.42;;;1.20;;
18754;SDS011;35061;47.664;9.166;2024-01-25T13:23:33;1.85;;;1.20;;
18754;SDS011;35061;47.664;9.166;2024-01-25T13:26:01;1.40;;;1.08;;
18754;SDS011;35061;47.664;9.166;2024-01-25T13:28:29;1.92;;;1.27;;
18754;SDS011;35061;47.664;9.166;2024-01-25T13:30:57;0.95;;;0.95;;
18754;SDS011;35061;47.664;9.166;2024-01-25T13:33:27;2.45;;;1.40;;
18754;SDS011;35061;47.664;9.166;2024-01-25T13:35:55;1.37;;;1.02;;
18754;SDS011;35061;47.664;9.166;2024-01-25T13:38:23;1.33;;;1.10;;
18754;SDS011;35061;47.664;9.166;2024-01-25T13:40:51;1.02;;;0.93;;
18754;SDS011;35061;47.664;9.166;2024-01-25T13:43:20;2.62;;;1.45;;
18754;SDS011;35061;47.664;9.166;2024-01-25T13:45:48;1.77;;;1.30;;
18754;SDS011;35061;47.664;9.166;2024-01-25T13:48:16;1.48;;;1.20;;
18754;SDS011;35061;47.664;9.166;2024-01-25T13:50:45;1.30;;;1.00;;
18754;SDS011;35061;47.664;9.166;2024-01-25T13:53:14;2.33;;;1.10;;
18754;SDS011;35061;47.664;9.166;2024-01-25T13:55:41;0.80;;;0.80;;
18754;SDS011;35061;47.664;9.166;2024-01-25T13:58:10;0.82;;;0.80;;
18754;SDS011;35061;47.664;9.166;2024-01-25T14:00:39;1.05;;;0.80;;
18754;SDS011;35061;47.664;9.166;2024-01-25T14:03:07;1.00;;;0.90;;
18754;SDS011;35061;47.664;9.166;2024-01-25T14:05:35;1.12;;;1.00;;
18754;SDS011;35061;47.664;9.166;2024-01-25T14:08:04;2.65;;;1.00;;
18754;SDS011;35061;47.664;9.166;2024-01-25T14:10:33;1.98;;;0.88;;
18754;SDS011;35061;47.664;9.166;2024-01-25T14:13:02;0.80;;;0.80;;
18754;SDS011;35061;47.664;9.166;2024-01-25T14:15:30;1.33;;;0.82;;
18754;SDS011;35061;47.664;9.166;2024-01-25T14:17:59;0.77;;;0.77;;
18754;SDS011;35061;47.664;9.166;2024-01-25T14:20:27;1.70;;;1.08;;
18754;SDS011;35061;47.664;9.166;2024-01-25T14:22:55;0.90;;;0.90;;
18754;SDS011;35061;47.664;9.166;2024-01-25T14:25:24;0.75;;;0.75;;
18754;SDS011;35061;47.664;9.166;2024-01-25T14:27:52;0.85;;;0.85;;
18754;SDS011;35061;47.664;9.166;2024-01-25T14:30:23;1.40;;;0.90;;
18754;SDS011;35061;47.664;9.166;2024-01-25T14:32:51;1.15;;;1.10;;
18754;SDS011;35061;47.664;9.166;2024-01-25T14:35:20;1.00;;;0.90;;
18754;SDS011;35061;47.664;9.166;2024-01-25T14:37:48;1.67;;;0.90;;
18754;SDS011;35061;47.664;9.166;2024-01-25T14:40:16;1.27;;;0.90;;
18754;SDS011;35061;47.664;9.166;2024-01-25T14:43:04;1.15;;;1.00;;
18754;SDS011;35061;47.664;9.166;2024-01-25T14:45:32;1.20;;;1.10;;
18754;SDS011;35061;47.664;9.166;2024-01-25T14:48:02;1.60;;;1.08;;
18754;SDS011;35061;47.664;9.166;2024-01-25T14:50:30;1.10;;;1.00;;
18754;SDS011;35061;47.664;9.166;2024-01-25T14:53:00;1.00;;;0.90;;
18754;SDS011;35061;47.664;9.166;2024-01-25T14:55:28;1.50;;;1.40;;
18754;SDS011;35061;47.664;9.166;2024-01-25T14:57:56;1.02;;;0.90;;
18754;SDS011;35061;47.664;9.166;2024-01-25T15:00:24;3.25;;;1.08;;